createdAt,value
2023-12-07T00:04:17.801Z,31.50
2023-12-07T00:09:23.680Z,31.10
2023-12-07T00:14:29.569Z,30.40
2023-12-07T00:19:35.473Z,26.00
2023-12-07T00:24:41.504Z,32.80
2023-12-07T00:29:47.599Z,32.50
2023-12-07T00:34:53.467Z,29.70
2023-12-07T00:39:59.623Z,30.20
2023-12-07T00:45:06.732Z,30.60
2023-12-07T00:50:15.810Z,30.20
2023-12-07T00:55:21.937Z,29.10
2023-12-07T01:00:27.999Z,31.30
2023-12-07T01:05:34.426Z,30.10
2023-12-07T01:10:40.725Z,29.30
2023-12-07T01:15:46.867Z,29.00
2023-12-07T01:20:52.772Z,30.70
2023-12-07T01:25:59.038Z,30.20
2023-12-07T01:31:05.280Z,28.40
2023-12-07T01:36:12.091Z,29.20
2023-12-07T01:41:18.031Z,31.50
2023-12-07T01:46:24.415Z,27.60
2023-12-07T01:51:31.139Z,25.70
2023-12-07T01:56:37.401Z,25.20
2023-12-07T02:01:44.288Z,30.10
2023-12-07T02:06:50.107Z,30.90
2023-12-07T02:11:55.922Z,27.80
2023-12-07T02:17:09.694Z,24.60
2023-12-07T02:22:23.838Z,28.00
2023-12-07T02:27:38.212Z,27.00
2023-12-07T02:32:46.449Z,25.80
2023-12-07T02:37:53.304Z,26.30
2023-12-07T02:43:00.661Z,27.50
2023-12-07T02:48:08.168Z,27.80
2023-12-07T02:53:14.518Z,25.90
2023-12-07T02:58:20.490Z,24.50
2023-12-07T03:03:26.376Z,24.30
2023-12-07T03:08:32.736Z,25.70
2023-12-07T03:13:38.847Z,25.70
2023-12-07T03:18:44.739Z,25.70
2023-12-07T03:23:51.041Z,23.20
2023-12-07T03:28:56.868Z,26.40
2023-12-07T03:34:03.111Z,27.60
2023-12-07T03:39:09.436Z,25.10
2023-12-07T03:44:15.532Z,24.20
2023-12-07T03:49:21.542Z,24.10
2023-12-07T03:54:27.289Z,25.70
2023-12-07T03:59:33.905Z,26.10
2023-12-07T04:04:40.143Z,23.80
2023-12-07T04:09:46.251Z,23.80
2023-12-07T04:14:52.974Z,26.20
2023-12-07T04:19:58.977Z,26.10
2023-12-07T04:25:06.298Z,23.90
2023-12-07T04:30:14.437Z,24.00
2023-12-07T04:35:20.260Z,22.30
2023-12-07T04:40:27.182Z,25.00
2023-12-07T04:45:33.116Z,32.80
2023-12-07T04:50:39.090Z,29.40
2023-12-07T04:55:49.772Z,27.40
2023-12-07T05:00:56.719Z,24.60
2023-12-07T05:06:02.638Z,25.50
2023-12-07T05:11:09.107Z,40.10
2023-12-07T05:16:15.024Z,34.30
2023-12-07T05:21:21.288Z,28.40
2023-12-07T05:26:27.658Z,24.50
2023-12-07T05:31:34.212Z,23.60
2023-12-07T05:36:40.067Z,21.50
2023-12-07T05:41:47.995Z,23.40
2023-12-07T05:46:53.923Z,24.80
2023-12-07T05:51:59.962Z,22.10
2023-12-07T05:57:06.905Z,21.80
2023-12-07T06:02:12.909Z,24.20
2023-12-07T06:07:18.963Z,23.50
2023-12-07T06:12:26.070Z,24.70
2023-12-07T06:17:34.702Z,23.00
2023-12-07T06:22:40.800Z,25.10
2023-12-07T06:27:47.258Z,28.40
2023-12-07T06:32:53.363Z,28.90
2023-12-07T06:37:59.384Z,24.40
2023-12-07T06:43:05.250Z,22.90
2023-12-07T06:48:11.153Z,29.30
2023-12-07T06:53:19.778Z,31.10
2023-12-07T06:58:26.078Z,34.90
2023-12-07T07:03:32.150Z,34.20
2023-12-07T07:08:38.019Z,28.10
2023-12-07T07:13:44.348Z,29.20
2023-12-07T07:18:50.463Z,25.70
2023-12-07T07:23:57.601Z,28.50
2023-12-07T07:29:04.813Z,28.60
2023-12-07T07:34:11.138Z,28.10
2023-12-07T07:39:17.247Z,23.90
2023-12-07T07:44:23.061Z,24.60
2023-12-07T07:49:29.256Z,26.60
2023-12-07T07:54:35.035Z,26.80
2023-12-07T07:59:40.862Z,23.00
2023-12-07T08:04:47.044Z,27.20
2023-12-07T08:09:52.926Z,28.60
2023-12-07T08:14:58.642Z,29.50
2023-12-07T08:20:04.833Z,24.40
2023-12-07T08:25:12.353Z,27.70
2023-12-07T08:30:19.968Z,28.60
2023-12-07T08:35:25.835Z,30.00
2023-12-07T08:40:31.971Z,26.80
2023-12-07T08:45:39.791Z,24.80
2023-12-07T08:50:45.916Z,31.10
2023-12-07T08:55:52.611Z,26.70
2023-12-07T09:00:58.604Z,28.60
2023-12-07T09:06:06.427Z,27.50
2023-12-07T09:11:12.355Z,26.80
2023-12-07T09:16:18.330Z,27.50
2023-12-07T09:21:24.446Z,30.00
2023-12-07T09:26:30.590Z,28.00
2023-12-07T09:31:36.402Z,28.60
2023-12-07T09:36:42.324Z,32.10
2023-12-07T09:41:48.893Z,32.80
2023-12-07T09:46:55.936Z,32.10
2023-12-07T09:52:02.201Z,29.40
2023-12-07T09:57:10.534Z,27.80
2023-12-07T10:02:17.412Z,33.10
2023-12-07T10:07:39.015Z,35.90
2023-12-07T10:12:52.209Z,33.60
2023-12-07T10:18:01.589Z,37.50
2023-12-07T10:23:09.393Z,39.80
2023-12-07T10:28:19.182Z,27.10
2023-12-07T10:33:25.031Z,26.70
2023-12-07T10:38:33.711Z,31.00
2023-12-07T10:43:43.920Z,29.70
2023-12-07T10:48:52.653Z,27.60
2023-12-07T10:54:04.359Z,26.80
2023-12-07T10:59:23.710Z,30.00
2023-12-07T11:04:38.291Z,29.50
2023-12-07T11:09:49.130Z,32.10
2023-12-07T11:20:00.313Z,26.40
2023-12-07T11:25:09.189Z,28.30
2023-12-07T11:30:17.359Z,27.40
2023-12-07T11:35:23.240Z,31.20
2023-12-07T11:40:30.305Z,28.30
2023-12-07T11:45:50.131Z,27.70
2023-12-07T11:51:01.595Z,29.80
2023-12-07T11:56:11.138Z,29.80
2023-12-07T12:01:19.528Z,24.40
2023-12-07T12:06:27.386Z,28.10
2023-12-07T12:11:33.523Z,29.90
2023-12-07T12:16:39.916Z,31.90
2023-12-07T12:21:45.713Z,34.10
2023-12-07T12:26:52.179Z,30.30
2023-12-07T12:31:57.941Z,33.80
2023-12-07T12:37:07.299Z,34.70
2023-12-07T12:42:13.993Z,34.50
2023-12-07T12:47:20.934Z,32.70
2023-12-07T12:52:29.594Z,33.10
2023-12-07T12:57:37.629Z,36.40
2023-12-07T13:02:43.502Z,35.20
2023-12-07T13:07:55.430Z,33.50
2023-12-07T13:13:08.573Z,29.30
2023-12-07T13:18:14.470Z,29.60
2023-12-07T13:23:21.742Z,29.00
2023-12-07T13:28:27.527Z,29.70
2023-12-07T13:33:38.938Z,32.00
2023-12-07T13:38:49.169Z,26.60
2023-12-07T13:43:55.257Z,27.40
2023-12-07T13:49:01.182Z,33.40
2023-12-07T13:54:23.281Z,32.80
2023-12-07T13:59:38.669Z,33.50
2023-12-07T14:04:45.159Z,28.40
2023-12-07T14:09:57.935Z,27.70
2023-12-07T14:15:08.962Z,31.70
2023-12-07T14:20:28.163Z,31.20
2023-12-07T14:25:47.790Z,28.90
2023-12-07T14:30:57.558Z,31.20
2023-12-07T14:36:05.372Z,32.40
2023-12-07T14:41:13.811Z,31.80
2023-12-07T14:46:22.446Z,36.00
2023-12-07T14:51:30.626Z,34.80
2023-12-07T14:56:36.979Z,34.90
2023-12-07T15:01:43.544Z,35.60
2023-12-07T15:06:49.636Z,35.00
2023-12-07T15:11:55.907Z,32.10
2023-12-07T15:17:02.288Z,35.10
2023-12-07T15:22:09.250Z,36.70
2023-12-07T15:27:15.378Z,38.40
2023-12-07T15:32:21.422Z,36.50
2023-12-07T15:37:27.528Z,34.90
2023-12-07T15:42:33.777Z,33.30
2023-12-07T15:47:39.624Z,36.20
2023-12-07T15:52:46.274Z,41.30
2023-12-07T15:57:52.202Z,40.50
2023-12-07T16:02:58.483Z,38.30
2023-12-07T16:08:04.759Z,32.40
2023-12-07T16:13:12.232Z,37.20
2023-12-07T16:18:18.847Z,33.70
2023-12-07T16:23:25.253Z,38.80
2023-12-07T16:28:31.990Z,40.30
2023-12-07T16:33:38.674Z,37.00
2023-12-07T16:38:45.606Z,36.40
2023-12-07T16:43:51.821Z,40.20
2023-12-07T16:48:57.870Z,34.70
2023-12-07T16:54:04.628Z,39.80
2023-12-07T16:59:10.751Z,35.00
2023-12-07T17:04:17.008Z,31.50
2023-12-07T17:09:23.705Z,34.40
2023-12-07T17:14:32.172Z,37.10
2023-12-07T17:23:12.243Z,36.80
2023-12-07T17:28:18.073Z,30.90
2023-12-07T17:33:27.386Z,36.70
2023-12-07T17:38:33.593Z,44.80
2023-12-07T17:43:40.025Z,54.20
2023-12-07T17:48:49.358Z,48.50
2023-12-07T17:53:55.515Z,42.60
2023-12-07T17:59:01.862Z,41.30
2023-12-07T18:04:08.186Z,45.00
2023-12-07T18:09:17.036Z,49.90
2023-12-07T18:14:23.194Z,41.20
2023-12-07T18:19:29.072Z,38.00
2023-12-07T18:24:35.090Z,34.80
2023-12-07T18:29:41.183Z,37.10
2023-12-07T18:34:47.384Z,39.70
2023-12-07T18:39:55.191Z,43.50
2023-12-07T18:45:02.541Z,39.20
2023-12-07T18:50:10.105Z,31.40
2023-12-07T18:55:16.678Z,41.00
2023-12-07T19:00:24.306Z,40.20
2023-12-07T19:05:30.860Z,43.20
2023-12-07T19:10:36.808Z,41.00
2023-12-07T19:15:43.084Z,34.10
2023-12-07T19:20:49.642Z,32.80
2023-12-07T19:25:55.656Z,38.70
2023-12-07T19:31:01.779Z,40.00
2023-12-07T19:36:08.833Z,38.00
2023-12-07T19:41:15.070Z,32.20
2023-12-07T19:46:22.558Z,32.20
2023-12-07T19:51:32.044Z,36.30
2023-12-07T19:56:38.157Z,39.20
2023-12-07T20:01:44.159Z,39.10
2023-12-07T20:06:50.222Z,33.60
2023-12-07T20:11:56.227Z,34.70
2023-12-07T20:17:02.214Z,36.80
2023-12-07T20:22:11.263Z,34.10
2023-12-07T20:27:20.639Z,30.30
2023-12-07T20:32:31.462Z,28.20
2023-12-07T20:37:39.683Z,31.40
2023-12-07T20:42:45.556Z,34.10
2023-12-07T20:47:51.570Z,32.20
2023-12-07T20:52:57.625Z,30.60
2023-12-07T20:58:03.703Z,32.70
2023-12-07T21:03:09.523Z,33.90
2023-12-07T21:08:15.954Z,31.40
2023-12-07T21:13:21.946Z,31.70
2023-12-07T21:18:29.596Z,32.70
2023-12-07T21:23:37.188Z,29.70
2023-12-07T21:28:43.295Z,28.60
2023-12-07T21:33:49.670Z,32.00
2023-12-07T21:38:55.870Z,32.80
2023-12-07T21:44:01.912Z,28.90
2023-12-07T21:49:08.147Z,30.10
2023-12-07T21:54:14.506Z,30.00
2023-12-07T21:59:20.848Z,31.80
2023-12-07T22:04:27.234Z,28.60
2023-12-07T22:09:33.241Z,32.00
2023-12-07T22:14:40.139Z,32.30
2023-12-07T22:19:45.916Z,28.00
2023-12-07T22:24:51.999Z,28.50
2023-12-07T22:29:58.292Z,30.30
2023-12-07T22:35:04.923Z,26.00
2023-12-07T22:40:12.665Z,29.40
2023-12-07T22:45:19.394Z,30.10
2023-12-07T22:50:25.506Z,30.00
2023-12-07T22:55:31.782Z,28.90
2023-12-07T23:00:37.845Z,29.90
2023-12-07T23:05:44.801Z,26.50
2023-12-07T23:10:51.166Z,27.20
2023-12-07T23:15:57.135Z,29.10
2023-12-07T23:21:03.187Z,27.20
2023-12-07T23:26:11.401Z,25.30
2023-12-07T23:31:17.387Z,28.70
2023-12-07T23:36:23.187Z,29.20
2023-12-07T23:41:29.736Z,27.10
2023-12-07T23:46:35.926Z,27.40
2023-12-07T23:51:41.826Z,28.40
2023-12-07T23:56:47.690Z,29.50
